Time;durP1;ratioP1;P1;durP2;ratioP2;P2;SDS_P1;SDS_P2;PMS_P1;PMS_P2;Temp;Humidity;BMP_temperature;BMP_pressure;BME280_temperature;BME280_humidity;BME280_pressure;Samples;Min_cycle;Max_cycle;Signal;HPM_P1;HPM_P2
2021/11/14 00:02:30;;;;;;;117.07;19.30;;;;;;;;;;10284018;28;20037;-65
2021/11/14 00:07:29;;;;;;;61.80;17.90;;;;;;;;;;10288085;28;20110;-66
2021/11/14 00:12:27;;;;;;;54.53;22.83;;;;;;;;;;10289482;28;20446;-65
2021/11/14 00:17:27;;;;;;;160.55;97.68;;;;;;;;;;10286394;28;20075;-65
2021/11/14 00:22:25;;;;;;;39.80;18.92;;;;;;;;;;10283500;28;20537;-65
2021/11/14 00:27:23;;;;;;;30.50;15.80;;;;;;;;;;10292289;28;20166;-65
2021/11/14 00:32:23;;;;;;;39.45;16.38;;;;;;;;;;10290231;28;20048;-65
2021/11/14 00:37:23;;;;;;;50.50;16.00;;;;;;;;;;10287550;28;20069;-65
2021/11/14 00:42:21;;;;;;;81.57;18.88;;;;;;;;;;10289185;28;20071;-65
2021/11/14 00:47:19;;;;;;;40.60;18.00;;;;;;;;;;10308624;28;20068;-65
2021/11/14 00:52:17;;;;;;;108.07;20.85;;;;;;;;;;10284497;28;20592;-66
2021/11/14 00:57:17;;;;;;;80.72;18.70;;;;;;;;;;10283745;28;20079;-65
2021/11/14 01:02:15;;;;;;;57.10;21.50;;;;;;;;;;10281280;28;20049;-66
2021/11/14 01:07:14;;;;;;;305.25;81.80;;;;;;;;;;10287389;28;20060;-65
2021/11/14 01:12:12;;;;;;;107.15;25.13;;;;;;;;;;10286271;28;20052;-65
2021/11/14 01:17:12;;;;;;;91.80;20.02;;;;;;;;;;10287443;28;20083;-65
2021/11/14 01:22:10;;;;;;;191.15;23.70;;;;;;;;;;10284431;28;20079;-65
2021/11/14 01:27:09;;;;;;;122.82;20.52;;;;;;;;;;10276292;28;20095;-65
2021/11/14 01:32:08;;;;;;;88.68;20.40;;;;;;;;;;10278084;28;20139;-65
2021/11/14 01:37:08;;;;;;;92.85;17.67;;;;;;;;;;10284395;28;20072;-65
2021/11/14 01:42:06;;;;;;;127.32;18.63;;;;;;;;;;10284861;28;20156;-65
2021/11/14 01:47:05;;;;;;;106.50;21.10;;;;;;;;;;10302459;28;20064;-65
2021/11/14 01:52:03;;;;;;;103.10;26.30;;;;;;;;;;10297065;28;20066;-65
2021/11/14 01:57:03;;;;;;;145.77;22.63;;;;;;;;;;10275312;28;20080;-65
2021/11/14 02:02:02;;;;;;;96.68;19.50;;;;;;;;;;10274965;28;20064;-65
2021/11/14 02:07:00;;;;;;;129.15;35.15;;;;;;;;;;10276195;28;20072;-65
2021/11/14 02:11:58;;;;;;;63.47;19.88;;;;;;;;;;10285664;28;20075;-65
2021/11/14 02:16:59;;;;;;;62.92;17.30;;;;;;;;;;10283862;28;20077;-66
2021/11/14 02:21:58;;;;;;;71.57;21.63;;;;;;;;;;10275226;28;20044;-66
2021/11/14 02:26:56;;;;;;;50.72;22.73;;;;;;;;;;10277007;28;20072;-66
2021/11/14 02:31:55;;;;;;;89.78;32.45;;;;;;;;;;10279728;28;20068;-66
2021/11/14 02:36:53;;;;;;;108.60;34.85;;;;;;;;;;10274377;28;20076;-66
2021/11/14 02:41:53;;;;;;;152.45;47.70;;;;;;;;;;10276280;28;20526;-66
2021/11/14 02:46:51;;;;;;;121.53;18.73;;;;;;;;;;10302624;28;20044;-66
2021/11/14 02:51:50;;;;;;;79.97;29.38;;;;;;;;;;10283618;28;20081;-66
2021/11/14 02:56:49;;;;;;;73.70;33.53;;;;;;;;;;10277218;28;20177;-66
2021/11/14 03:01:52;;;;;;;101.53;32.58;;;;;;;;;;10277771;28;20064;-66
2021/11/14 03:06:52;;;;;;;66.75;26.20;;;;;;;;;;10282686;28;20068;-66
2021/11/14 03:11:51;;;;;;;57.50;19.13;;;;;;;;;;10287324;28;20091;-66
2021/11/14 03:16:50;;;;;;;63.03;24.10;;;;;;;;;;10289997;28;20473;-66
2021/11/14 03:21:49;;;;;;;111.82;19.95;;;;;;;;;;10281787;28;20087;-66
2021/11/14 03:26:47;;;;;;;78.10;20.75;;;;;;;;;;10283046;28;20071;-66
2021/11/14 03:31:47;;;;;;;85.90;19.25;;;;;;;;;;10293200;28;20056;-66
2021/11/14 03:36:47;;;;;;;65.32;18.95;;;;;;;;;;10315364;28;20072;-65
2021/11/14 03:41:45;;;;;;;107.22;20.15;;;;;;;;;;10301669;28;20084;-68
2021/11/14 03:46:44;;;;;;;87.72;18.42;;;;;;;;;;10284985;28;20529;-65
2021/11/14 03:51:43;;;;;;;34.80;19.60;;;;;;;;;;10305257;28;20102;-65
2021/11/14 03:56:43;;;;;;;70.65;21.88;;;;;;;;;;10294262;28;20536;-66
2021/11/14 04:01:41;;;;;;;56.70;19.48;;;;;;;;;;10290554;28;20064;-66
2021/11/14 04:06:40;;;;;;;88.18;20.75;;;;;;;;;;10297736;28;20140;-65
2021/11/14 04:11:38;;;;;;;85.25;24.35;;;;;;;;;;10297445;28;20521;-66
2021/11/14 04:16:38;;;;;;;137.57;21.80;;;;;;;;;;10292508;28;20091;-66
2021/11/14 04:21:36;;;;;;;70.47;27.38;;;;;;;;;;10286643;28;20096;-66
2021/11/14 04:26:35;;;;;;;65.70;24.30;;;;;;;;;;10278882;28;20519;-66
2021/11/14 04:31:33;;;;;;;52.35;20.00;;;;;;;;;;10280146;28;20072;-66
2021/11/14 04:36:33;;;;;;;92.93;20.83;;;;;;;;;;10290025;28;20068;-65
2021/11/14 04:41:31;;;;;;;42.67;20.60;;;;;;;;;;10291377;28;20103;-66
2021/11/14 04:46:29;;;;;;;57.42;21.70;;;;;;;;;;10274133;28;20474;-66
2021/11/14 04:51:28;;;;;;;96.05;20.67;;;;;;;;;;10275892;28;20599;-66
2021/11/14 04:56:28;;;;;;;43.20;16.30;;;;;;;;;;10285486;28;20072;-67
2021/11/14 05:01:26;;;;;;;48.83;19.48;;;;;;;;;;10274736;28;20461;-67
2021/11/14 05:06:25;;;;;;;55.40;19.25;;;;;;;;;;10272221;28;20065;-67
2021/11/14 05:11:23;;;;;;;72.90;27.95;;;;;;;;;;10272018;28;20061;-66
2021/11/14 05:16:23;;;;;;;56.78;22.73;;;;;;;;;;10278304;28;20080;-66
2021/11/14 05:21:22;;;;;;;56.72;19.73;;;;;;;;;;10283095;28;20068;-66
2021/11/14 05:26:20;;;;;;;48.75;24.67;;;;;;;;;;10285166;28;20061;-67
2021/11/14 05:31:18;;;;;;;77.47;32.97;;;;;;;;;;10286880;28;20099;-66
2021/11/14 05:36:18;;;;;;;71.28;34.28;;;;;;;;;;10287742;28;20205;-66
2021/11/14 05:41:16;;;;;;;95.03;30.25;;;;;;;;;;10289403;28;20486;-66
2021/11/14 05:46:15;;;;;;;82.32;33.55;;;;;;;;;;10288123;28;20032;-66
2021/11/14 05:51:13;;;;;;;86.72;31.75;;;;;;;;;;10276169;28;20082;-66
2021/11/14 05:56:12;;;;;;;133.07;32.08;;;;;;;;;;10290823;28;20068;-66
2021/11/14 06:01:14;;;;;;;182.90;27.00;;;;;;;;;;10272538;28;20084;-66
2021/11/14 06:06:13;;;;;;;252.45;31.83;;;;;;;;;;10274557;28;20075;-67
2021/11/14 06:11:12;;;;;;;235.07;39.08;;;;;;;;;;10275061;28;20072;-66
2021/11/14 06:16:11;;;;;;;169.00;26.20;;;;;;;;;;10277559;28;20065;-65
2021/11/14 06:21:09;;;;;;;131.55;27.73;;;;;;;;;;10275071;28;20061;-65
2021/11/14 06:26:08;;;;;;;176.63;33.40;;;;;;;;;;10275007;28;20076;-65
2021/11/14 06:31:08;;;;;;;134.93;25.92;;;;;;;;;;10271395;28;20482;-65
2021/11/14 06:36:06;;;;;;;159.02;29.08;;;;;;;;;;10270998;28;20431;-64
2021/11/14 06:41:04;;;;;;;105.55;25.58;;;;;;;;;;10276242;28;20481;-65
2021/11/14 06:46:03;;;;;;;88.32;25.25;;;;;;;;;;10277790;28;20076;-66
2021/11/14 06:51:03;;;;;;;96.22;23.67;;;;;;;;;;10293924;28;20072;-65
2021/11/14 06:56:02;;;;;;;130.30;33.92;;;;;;;;;;10298144;28;20080;-65
2021/11/14 07:01:00;;;;;;;221.25;28.63;;;;;;;;;;10301491;28;20348;-65
2021/11/14 07:05:59;;;;;;;77.63;34.22;;;;;;;;;;10298242;28;20072;-65
2021/11/14 07:11:00;;;;;;;130.50;34.00;;;;;;;;;;10294914;28;20076;-66
2021/11/14 07:15:59;;;;;;;101.35;33.50;;;;;;;;;;10296128;28;20072;-65
2021/11/14 07:20:57;;;;;;;105.28;29.98;;;;;;;;;;10284592;28;20079;-66
2021/11/14 07:25:55;;;;;;;86.40;29.85;;;;;;;;;;10283183;28;20083;-66
2021/11/14 07:30:55;;;;;;;180.27;37.72;;;;;;;;;;10287132;28;20075;-65
2021/11/14 07:35:53;;;;;;;140.65;46.80;;;;;;;;;;10280220;28;20522;-64
2021/11/14 07:40:52;;;;;;;185.02;41.15;;;;;;;;;;10300861;28;20568;-66
2021/11/14 07:45:50;;;;;;;160.60;31.83;;;;;;;;;;10291059;28;20536;-66
2021/11/14 07:50:53;;;;;;;91.50;29.30;;;;;;;;;;10274119;28;20080;-66
2021/11/14 07:55:51;;;;;;;172.35;29.38;;;;;;;;;;10273717;28;20083;-66
2021/11/14 08:00:50;;;;;;;101.43;33.35;;;;;;;;;;10286972;28;20080;-65
2021/11/14 08:05:50;;;;;;;83.70;25.42;;;;;;;;;;10289018;28;20076;-67
2021/11/14 08:10:48;;;;;;;136.93;63.00;;;;;;;;;;10277749;28;20545;-65
2021/11/14 08:15:46;;;;;;;59.53;23.33;;;;;;;;;;10277667;28;20075;-65
2021/11/14 08:20:45;;;;;;;28.48;19.45;;;;;;;;;;10288294;28;20106;-65
2021/11/14 08:25:45;;;;;;;38.42;21.10;;;;;;;;;;10290870;28;20492;-66
2021/11/14 08:30:44;;;;;;;52.15;23.20;;;;;;;;;;10286406;28;20462;-65
2021/11/14 08:36:02;;;;;;;45.13;30.58;;;;;;;;;;10277374;28;20088;-66
2021/11/14 08:41:02;;;;;;;50.08;24.70;;;;;;;;;;10288284;28;20083;-66
2021/11/14 08:46:01;;;;;;;43.95;23.88;;;;;;;;;;10298804;28;20072;-66
2021/11/14 08:50:59;;;;;;;47.20;27.70;;;;;;;;;;10276481;28;20498;-67
2021/11/14 08:55:58;;;;;;;26.08;17.05;;;;;;;;;;10276263;28;20490;-66
2021/11/14 09:01:03;;;;;;;38.10;15.10;;;;;;;;;;10286513;28;20049;-66
2021/11/14 09:06:02;;;;;;;29.70;20.20;;;;;;;;;;10275530;28;20033;-66
2021/11/14 09:11:01;;;;;;;30.02;21.10;;;;;;;;;;10274441;28;20076;-67
2021/11/14 09:15:59;;;;;;;32.88;20.63;;;;;;;;;;10286630;28;20075;-66
2021/11/14 09:20:59;;;;;;;26.90;15.23;;;;;;;;;;10275120;28;20562;-66
2021/11/14 09:25:57;;;;;;;31.85;20.00;;;;;;;;;;10274845;28;20064;-66
2021/11/14 09:30:56;;;;;;;32.75;23.75;;;;;;;;;;10285931;28;20065;-66
2021/11/14 09:35:54;;;;;;;26.23;17.83;;;;;;;;;;10274742;28;20434;-66
2021/11/14 09:40:54;;;;;;;23.17;15.63;;;;;;;;;;10284721;28;20079;-67
2021/11/14 09:45:52;;;;;;;58.42;41.58;;;;;;;;;;10293376;28;20041;-66
2021/11/14 09:50:52;;;;;;;34.78;24.27;;;;;;;;;;10273242;28;20083;-66
2021/11/14 09:55:50;;;;;;;28.63;19.83;;;;;;;;;;10273839;28;20065;-66
2021/11/14 10:00:50;;;;;;;32.55;24.75;;;;;;;;;;10280613;28;20081;-66
2021/11/14 10:05:49;;;;;;;36.97;27.08;;;;;;;;;;10282930;28;20075;-65
2021/11/14 10:10:49;;;;;;;34.80;23.65;;;;;;;;;;10273811;28;20163;-66
2021/11/14 10:15:48;;;;;;;16.77;11.50;;;;;;;;;;10273365;28;20061;-66
2021/11/14 10:20:50;;;;;;;86.88;48.63;;;;;;;;;;10283741;28;20085;-66
2021/11/14 10:25:49;;;;;;;30.27;20.10;;;;;;;;;;10284204;28;20047;-66
2021/11/14 10:30:48;;;;;;;27.25;18.73;;;;;;;;;;10281966;28;20513;-66
2021/11/14 10:35:49;;;;;;;36.50;30.17;;;;;;;;;;10272956;28;20087;-67
2021/11/14 10:40:48;;;;;;;27.15;20.52;;;;;;;;;;10281660;28;20505;-67
2021/11/14 10:45:46;;;;;;;37.17;25.65;;;;;;;;;;10293869;28;20073;-67
2021/11/14 10:50:47;;;;;;;32.05;21.10;;;;;;;;;;10278709;28;20405;-67
2021/11/14 10:55:47;;;;;;;24.40;17.77;;;;;;;;;;10275884;28;20104;-66
2021/11/14 11:00:47;;;;;;;17.67;12.88;;;;;;;;;;10283324;28;20076;-66
2021/11/14 11:05:46;;;;;;;16.00;11.02;;;;;;;;;;10284406;28;20060;-67
2021/11/14 11:10:45;;;;;;;17.50;15.02;;;;;;;;;;10282890;28;20068;-66
2021/11/14 11:15:45;;;;;;;28.70;25.27;;;;;;;;;;10274193;28;20057;-67
2021/11/14 11:20:44;;;;;;;17.00;11.82;;;;;;;;;;10280741;28;20080;-67
2021/11/14 11:25:44;;;;;;;27.92;17.95;;;;;;;;;;10275876;28;20520;-66
2021/11/14 11:30:43;;;;;;;36.45;22.75;;;;;;;;;;10278853;28;20469;-67
2021/11/14 11:35:45;;;;;;;24.80;17.80;;;;;;;;;;10292645;28;20076;-67
2021/11/14 11:40:43;;;;;;;35.70;23.75;;;;;;;;;;10297614;28;20079;-68
2021/11/14 11:45:44;;;;;;;26.13;17.20;;;;;;;;;;10296740;28;20084;-66
2021/11/14 11:50:42;;;;;;;18.52;13.18;;;;;;;;;;10302486;28;20064;-66
2021/11/14 11:55:42;;;;;;;16.42;14.27;;;;;;;;;;10294622;28;20465;-65
2021/11/14 12:00:54;;;;;;;20.92;15.32;;;;;;;;;;10281763;28;20068;-64
2021/11/14 12:05:53;;;;;;;23.88;19.40;;;;;;;;;;10279272;28;20091;-65
2021/11/14 12:10:58;;;;;;;15.90;12.85;;;;;;;;;;10290240;28;20068;-66
2021/11/14 12:16:00;;;;;;;23.70;18.25;;;;;;;;;;10283688;28;20079;-65
2021/11/14 12:20:59;;;;;;;19.48;13.77;;;;;;;;;;10279296;28;20076;-64
2021/11/14 12:26:00;;;;;;;39.20;23.92;;;;;;;;;;10283293;28;20069;-65
2021/11/14 12:31:03;;;;;;;15.73;13.77;;;;;;;;;;10274033;28;21425;-66
2021/11/14 12:36:09;;;;;;;25.92;18.42;;;;;;;;;;10288404;28;20076;-66
2021/11/14 12:41:11;;;;;;;18.35;13.75;;;;;;;;;;10293575;28;20528;-66
2021/11/14 12:46:10;;;;;;;19.48;15.95;;;;;;;;;;10296940;28;20343;-66
2021/11/14 12:51:11;;;;;;;20.75;17.13;;;;;;;;;;10288647;28;20080;-66
2021/11/14 12:56:13;;;;;;;37.28;26.50;;;;;;;;;;10293851;28;20052;-66
2021/11/14 13:01:12;;;;;;;18.90;13.57;;;;;;;;;;10278897;28;20597;-67
2021/11/14 13:06:17;;;;;;;16.15;13.38;;;;;;;;;;10283666;28;20075;-66
2021/11/14 13:11:22;;;;;;;18.83;15.03;;;;;;;;;;10283220;28;20525;-67
2021/11/14 13:16:22;;;;;;;34.92;24.45;;;;;;;;;;10275819;28;20435;-66
2021/11/14 13:21:22;;;;;;;29.92;20.35;;;;;;;;;;10281353;28;20380;-66
2021/11/14 13:26:21;;;;;;;25.02;18.08;;;;;;;;;;10287132;28;20095;-66
2021/11/14 13:31:21;;;;;;;25.15;16.90;;;;;;;;;;10280294;28;20068;-66
2021/11/14 13:36:23;;;;;;;36.47;23.00;;;;;;;;;;10285629;28;20077;-66
2021/11/14 13:41:23;;;;;;;23.60;18.60;;;;;;;;;;10294941;28;20105;-65
2021/11/14 13:46:22;;;;;;;36.63;29.58;;;;;;;;;;10294237;28;20049;-65
2021/11/14 13:51:21;;;;;;;30.45;21.98;;;;;;;;;;10291763;28;20073;-66
2021/11/14 13:56:20;;;;;;;34.72;23.42;;;;;;;;;;10277299;28;20469;-66
2021/11/14 14:01:20;;;;;;;45.47;29.80;;;;;;;;;;10290739;28;20529;-67
2021/11/14 14:06:19;;;;;;;38.28;26.40;;;;;;;;;;10272912;28;20080;-67
2021/11/14 14:11:18;;;;;;;47.83;33.83;;;;;;;;;;10272750;28;20430;-67
2021/11/14 14:16:16;;;;;;;39.08;26.85;;;;;;;;;;10271524;28;20065;-67
2021/11/14 14:21:18;;;;;;;82.45;55.03;;;;;;;;;;10269577;28;20072;-67
2021/11/14 14:26:17;;;;;;;50.05;34.38;;;;;;;;;;10272254;28;20540;-67
2021/11/14 14:31:16;;;;;;;36.42;26.10;;;;;;;;;;10268898;28;20493;-66
2021/11/14 14:36:16;;;;;;;44.47;32.42;;;;;;;;;;10293572;28;20132;-66
2021/11/14 14:41:16;;;;;;;45.55;34.85;;;;;;;;;;10270936;28;20071;-66
2021/11/14 14:46:15;;;;;;;39.22;31.60;;;;;;;;;;10270510;28;20064;-67
2021/11/14 14:51:16;;;;;;;35.35;28.75;;;;;;;;;;10279527;28;20069;-69
2021/11/14 14:56:17;;;;;;;100.53;55.33;;;;;;;;;;10276902;28;20473;-67
2021/11/14 15:01:20;;;;;;;181.15;124.05;;;;;;;;;;10277781;28;20079;-67
2021/11/14 15:06:20;;;;;;;154.57;95.63;;;;;;;;;;10281653;28;20049;-67
2021/11/14 15:11:28;;;;;;;72.50;47.10;;;;;;;;;;10280572;28;20073;-67
2021/11/14 15:16:26;;;;;;;55.40;39.53;;;;;;;;;;10280843;28;20079;-66
2021/11/14 15:21:26;;;;;;;62.45;46.53;;;;;;;;;;10290119;28;20071;-67
2021/11/14 15:26:24;;;;;;;117.63;76.18;;;;;;;;;;10292564;28;20509;-65
2021/11/14 15:31:25;;;;;;;35.60;28.63;;;;;;;;;;10291431;28;20088;-68
2021/11/14 15:36:24;;;;;;;94.75;60.92;;;;;;;;;;10281346;28;20076;-68
2021/11/14 15:41:23;;;;;;;63.20;43.60;;;;;;;;;;10278725;28;20285;-66
2021/11/14 15:46:22;;;;;;;75.78;50.88;;;;;;;;;;10282745;28;20668;-67
2021/11/14 15:51:21;;;;;;;85.53;59.80;;;;;;;;;;10280469;28;20075;-67
2021/11/14 15:56:19;;;;;;;63.38;47.10;;;;;;;;;;10278936;28;20470;-67
2021/11/14 16:01:19;;;;;;;69.22;51.40;;;;;;;;;;10284578;28;20072;-68
2021/11/14 16:06:18;;;;;;;94.88;59.75;;;;;;;;;;10278277;28;20540;-67
2021/11/14 16:11:16;;;;;;;68.45;50.15;;;;;;;;;;10277264;28;20069;-66
2021/11/14 16:16:14;;;;;;;50.13;35.13;;;;;;;;;;10283058;28;20068;-66
2021/11/14 16:21:16;;;;;;;42.03;32.80;;;;;;;;;;10279365;28;20488;-67
2021/11/14 16:26:15;;;;;;;42.90;32.83;;;;;;;;;;10277991;28;20057;-66
2021/11/14 16:31:13;;;;;;;39.78;27.88;;;;;;;;;;10275021;28;20061;-66
2021/11/14 16:36:11;;;;;;;58.20;39.78;;;;;;;;;;10277231;28;20474;-66
2021/11/14 16:41:11;;;;;;;45.00;32.00;;;;;;;;;;10277918;28;20079;-67
2021/11/14 16:46:11;;;;;;;44.20;32.47;;;;;;;;;;10285318;28;20486;-67
2021/11/14 16:51:09;;;;;;;51.90;39.67;;;;;;;;;;10278611;28;20064;-66
2021/11/14 16:56:07;;;;;;;59.15;42.35;;;;;;;;;;10279451;28;20482;-67
2021/11/14 17:01:07;;;;;;;70.60;46.60;;;;;;;;;;10274116;28;20072;-66
2021/11/14 17:06:06;;;;;;;67.95;46.97;;;;;;;;;;10275192;28;20064;-66
2021/11/14 17:11:05;;;;;;;46.55;32.40;;;;;;;;;;10282726;28;20490;-67
2021/11/14 17:16:03;;;;;;;65.72;43.92;;;;;;;;;;10279267;28;20079;-67
2021/11/14 17:21:03;;;;;;;50.35;34.90;;;;;;;;;;10286543;28;20080;-67
2021/11/14 17:26:01;;;;;;;62.58;40.03;;;;;;;;;;10286245;28;20084;-67
2021/11/14 17:30:59;;;;;;;49.45;33.30;;;;;;;;;;10273373;28;20068;-66
2021/11/14 17:35:58;;;;;;;63.45;40.00;;;;;;;;;;10284167;28;20080;-65
2021/11/14 17:40:58;;;;;;;73.35;51.03;;;;;;;;;;10279748;28;20095;-66
2021/11/14 17:45:57;;;;;;;46.58;33.58;;;;;;;;;;10277648;28;20076;-66
2021/11/14 17:50:55;;;;;;;73.88;51.85;;;;;;;;;;10273578;28;20076;-66
2021/11/14 17:55:56;;;;;;;61.22;42.72;;;;;;;;;;10282539;28;20667;-67
2021/11/14 18:00:56;;;;;;;54.17;35.80;;;;;;;;;;10279451;28;20077;-67
2021/11/14 18:05:55;;;;;;;50.40;38.83;;;;;;;;;;10283741;28;20069;-67
2021/11/14 18:10:53;;;;;;;47.45;35.40;;;;;;;;;;10278717;28;20072;-67
2021/11/14 18:15:53;;;;;;;59.25;41.58;;;;;;;;;;10276929;28;20076;-67
2021/11/14 18:20:53;;;;;;;47.50;31.70;;;;;;;;;;10270882;28;20494;-67
2021/11/14 18:25:56;;;;;;;68.20;50.38;;;;;;;;;;10285514;28;20076;-66
2021/11/14 18:30:55;;;;;;;43.85;32.78;;;;;;;;;;10274772;28;20068;-65
2021/11/14 18:35:54;;;;;;;36.58;25.92;;;;;;;;;;10271622;28;20072;-66
2021/11/14 18:40:53;;;;;;;50.42;33.88;;;;;;;;;;10276795;28;20603;-66
2021/11/14 18:45:51;;;;;;;212.85;120.28;;;;;;;;;;10303143;28;20075;-67
2021/11/14 18:50:49;;;;;;;86.63;58.33;;;;;;;;;;10299728;28;20073;-67
2021/11/14 18:55:51;;;;;;;151.10;104.88;;;;;;;;;;10282451;28;20064;-67
2021/11/14 19:00:51;;;;;;;83.72;59.75;;;;;;;;;;10280816;28;20545;-67
2021/11/14 19:05:50;;;;;;;97.22;67.45;;;;;;;;;;10279685;28;20064;-67
2021/11/14 19:10:50;;;;;;;52.65;38.47;;;;;;;;;;10279976;28;20060;-67
2021/11/14 19:15:48;;;;;;;83.30;56.40;;;;;;;;;;10280768;28;20053;-68
2021/11/14 19:20:46;;;;;;;50.22;36.85;;;;;;;;;;10280990;28;20361;-67
2021/11/14 19:25:45;;;;;;;49.13;35.97;;;;;;;;;;10278878;28;20073;-67
2021/11/14 19:30:44;;;;;;;49.55;35.13;;;;;;;;;;10278430;28;20060;-67
2021/11/14 19:35:43;;;;;;;50.50;32.40;;;;;;;;;;10288376;28;20091;-66
2021/11/14 19:40:41;;;;;;;44.33;32.40;;;;;;;;;;10278695;28;20068;-67
2021/11/14 19:45:40;;;;;;;45.88;31.23;;;;;;;;;;10278224;28;20608;-67
2021/11/14 19:50:40;;;;;;;32.28;23.33;;;;;;;;;;10286303;28;20075;-67
2021/11/14 19:55:39;;;;;;;39.47;28.80;;;;;;;;;;10276689;28;20073;-67
2021/11/14 20:00:38;;;;;;;52.70;34.72;;;;;;;;;;10277147;28;20079;-66
2021/11/14 20:05:36;;;;;;;65.15;39.88;;;;;;;;;;10277207;28;20072;-66
2021/11/14 20:10:37;;;;;;;74.72;48.03;;;;;;;;;;10276503;28;20505;-67
2021/11/14 20:15:37;;;;;;;58.60;37.65;;;;;;;;;;10281556;28;20073;-67
2021/11/14 20:20:36;;;;;;;106.68;64.95;;;;;;;;;;10279617;28;20074;-65
2021/11/14 20:25:36;;;;;;;62.10;42.13;;;;;;;;;;10292092;28;20095;-66
2021/11/14 20:30:34;;;;;;;66.43;41.28;;;;;;;;;;10281550;28;20484;-66
2021/11/14 20:35:33;;;;;;;66.95;41.70;;;;;;;;;;10296795;28;20288;-67
2021/11/14 20:40:33;;;;;;;112.28;65.18;;;;;;;;;;10291397;28;20071;-66
2021/11/14 20:45:36;;;;;;;98.28;59.97;;;;;;;;;;10288870;28;20083;-66
2021/11/14 20:50:35;;;;;;;59.40;35.42;;;;;;;;;;10297444;28;20064;-67
2021/11/14 20:55:33;;;;;;;74.65;44.80;;;;;;;;;;10291102;28;20072;-67
2021/11/14 21:00:32;;;;;;;75.60;47.60;;;;;;;;;;10293192;28;20067;-66
2021/11/14 21:05:32;;;;;;;52.58;34.20;;;;;;;;;;10292091;28;20071;-66
2021/11/14 21:10:30;;;;;;;60.67;38.17;;;;;;;;;;10291652;28;20068;-65
2021/11/14 21:15:29;;;;;;;62.20;38.25;;;;;;;;;;10292411;28;20564;-65
2021/11/14 21:20:27;;;;;;;62.45;38.53;;;;;;;;;;10285770;28;20072;-66
2021/11/14 21:25:27;;;;;;;74.82;45.30;;;;;;;;;;10291379;28;20513;-67
2021/11/14 21:30:26;;;;;;;53.88;33.17;;;;;;;;;;10294568;28;20156;-66
2021/11/14 21:40:44;;;;;;;65.72;41.10;;;;;;;;;;10290521;28;20064;-66
2021/11/14 21:45:42;;;;;;;58.63;37.58;;;;;;;;;;10289739;28;20128;-66
2021/11/14 21:50:42;;;;;;;42.85;25.42;;;;;;;;;;10291496;28;20077;-65
2021/11/14 21:55:41;;;;;;;47.00;31.13;;;;;;;;;;10291727;28;20075;-65
2021/11/14 22:00:41;;;;;;;50.95;31.25;;;;;;;;;;10292049;28;20293;-66
2021/11/14 22:05:39;;;;;;;47.63;28.20;;;;;;;;;;10290778;28;20092;-66
2021/11/14 22:10:38;;;;;;;43.97;26.48;;;;;;;;;;10292471;28;20079;-65
2021/11/14 22:15:36;;;;;;;41.42;26.05;;;;;;;;;;10289889;28;20477;-65
2021/11/14 22:20:36;;;;;;;40.15;27.48;;;;;;;;;;10286512;28;20461;-66
2021/11/14 22:25:34;;;;;;;49.58;31.98;;;;;;;;;;10290952;28;20485;-66
2021/11/14 22:30:32;;;;;;;36.78;23.10;;;;;;;;;;10289085;28;20071;-65
2021/11/14 22:35:31;;;;;;;40.92;22.63;;;;;;;;;;10291904;28;20073;-66
2021/11/14 22:40:30;;;;;;;44.33;24.55;;;;;;;;;;10293632;28;20064;-66
2021/11/14 22:45:30;;;;;;;41.75;25.40;;;;;;;;;;10291564;28;20471;-66
2021/11/14 22:50:29;;;;;;;36.97;21.65;;;;;;;;;;10294344;28;20075;-66
2021/11/14 22:55:28;;;;;;;41.47;23.00;;;;;;;;;;10295039;28;20065;-66
2021/11/14 23:00:44;;;;;;;37.17;20.92;;;;;;;;;;10272645;28;20506;-67
2021/11/14 23:05:44;;;;;;;50.72;31.15;;;;;;;;;;10272489;28;20072;-66
2021/11/14 23:10:42;;;;;;;48.90;27.70;;;;;;;;;;10291580;28;20071;-66
2021/11/14 23:15:42;;;;;;;47.83;28.27;;;;;;;;;;10277846;28;20314;-66
2021/11/14 23:20:41;;;;;;;40.90;25.10;;;;;;;;;;10282562;28;20195;-66
2021/11/14 23:25:39;;;;;;;46.08;24.10;;;;;;;;;;10290298;28;20080;-66
2021/11/14 23:30:38;;;;;;;40.47;21.88;;;;;;;;;;10298156;28;20462;-66
2021/11/14 23:35:39;;;;;;;59.65;29.90;;;;;;;;;;10297836;28;20502;-65
2021/11/14 23:40:40;;;;;;;125.80;76.03;;;;;;;;;;10285900;28;20069;-66
2021/11/14 23:45:39;;;;;;;50.15;27.45;;;;;;;;;;10289961;28;20079;-66
2021/11/14 23:50:38;;;;;;;68.05;35.30;;;;;;;;;;10289405;28;20072;-66
2021/11/14 23:55:37;;;;;;;71.45;34.55;;;;;;;;;;10289459;28;20072;-66
